createdAt,value
2022-10-05T00:02:19.672Z,100514.94
2022-10-05T00:04:49.560Z,100516.97
2022-10-05T00:07:21.211Z,100512.13
2022-10-05T00:09:54.815Z,100520.53
2022-10-05T00:12:26.788Z,100522.09
2022-10-05T00:15:00.651Z,100515.50
2022-10-05T00:17:31.385Z,100516.84
2022-10-05T00:20:01.087Z,100515.59
2022-10-05T00:22:31.547Z,100516.41
2022-10-05T00:25:02.059Z,100519.72
2022-10-05T00:27:34.174Z,100529.78
2022-10-05T00:30:11.781Z,100524.28
2022-10-05T00:32:41.324Z,100529.06
2022-10-05T00:35:11.279Z,100531.19
2022-10-05T00:37:41.092Z,100525.03
2022-10-05T00:40:15.874Z,100524.78
2022-10-05T00:42:52.786Z,100530.25
2022-10-05T00:45:24.743Z,100525.41
2022-10-05T00:48:01.331Z,100523.22
2022-10-05T00:50:57.787Z,100516.03
2022-10-05T00:53:34.250Z,100519.38
2022-10-05T00:56:05.799Z,100518.34
2022-10-05T00:58:44.960Z,100520.84
2022-10-05T01:01:15.879Z,100523.00
2022-10-05T01:03:52.278Z,100528.00
2022-10-05T01:06:25.832Z,100537.16
2022-10-05T01:08:59.527Z,100533.69
2022-10-05T01:11:31.120Z,100532.88
2022-10-05T01:14:04.658Z,100532.44
2022-10-05T01:16:37.165Z,100532.59
2022-10-05T01:19:16.886Z,100533.22
2022-10-05T01:21:48.955Z,100533.81
2022-10-05T01:24:36.542Z,100538.69
2022-10-05T01:27:12.643Z,100540.53
2022-10-05T01:29:45.743Z,100532.94
2022-10-05T01:32:20.435Z,100534.91
2022-10-05T01:34:54.370Z,100532.31
2022-10-05T01:37:28.034Z,100543.22
2022-10-05T01:40:01.587Z,100542.69
2022-10-05T01:42:36.611Z,100543.53
2022-10-05T01:45:10.726Z,100546.41
2022-10-05T01:47:43.928Z,100541.94
2022-10-05T01:50:18.779Z,100547.06
2022-10-05T01:52:52.961Z,100543.44
2022-10-05T01:55:29.452Z,100549.97
2022-10-05T01:58:07.176Z,100541.63
2022-10-05T02:00:41.685Z,100540.47
2022-10-05T02:03:15.162Z,100547.50
2022-10-05T02:05:48.070Z,100550.28
2022-10-05T02:08:22.299Z,100546.34
2022-10-05T02:10:54.028Z,100556.25
2022-10-05T02:13:26.628Z,100552.09
2022-10-05T02:16:01.645Z,100566.19
2022-10-05T02:18:33.522Z,100563.94
2022-10-05T02:21:04.125Z,100564.34
2022-10-05T02:23:34.827Z,100566.50
2022-10-05T02:26:05.847Z,100568.28
2022-10-05T02:28:37.890Z,100567.78
2022-10-05T02:31:11.510Z,100570.78
2022-10-05T02:33:41.514Z,100573.09
2022-10-05T02:36:14.179Z,100567.00
2022-10-05T02:38:50.771Z,100572.13
2022-10-05T02:41:27.066Z,100578.94
2022-10-05T02:44:00.830Z,100579.88
2022-10-05T02:46:36.847Z,100581.47
2022-10-05T02:49:13.016Z,100587.91
2022-10-05T02:51:47.095Z,100587.34
2022-10-05T02:54:22.192Z,100590.56
2022-10-05T02:56:57.153Z,100588.25
2022-10-05T02:59:31.140Z,100577.31
2022-10-05T03:02:05.802Z,100584.03
2022-10-05T03:04:40.582Z,100580.44
2022-10-05T03:07:15.371Z,100582.22
2022-10-05T03:09:49.252Z,100587.75
2022-10-05T03:12:25.280Z,100590.50
2022-10-05T03:15:01.864Z,100594.66
2022-10-05T03:17:36.138Z,100590.69
2022-10-05T03:20:15.361Z,100595.22
2022-10-05T03:22:52.070Z,100590.63
2022-10-05T03:25:33.400Z,100596.81
2022-10-05T03:28:07.525Z,100591.69
2022-10-05T03:30:43.609Z,100602.97
2022-10-05T03:33:17.896Z,100602.59
2022-10-05T03:35:51.599Z,100609.19
2022-10-05T03:38:26.893Z,100603.44
2022-10-05T03:41:00.091Z,100614.28
2022-10-05T03:43:44.324Z,100612.09
2022-10-05T03:46:15.094Z,100611.47
2022-10-05T03:48:49.792Z,100622.47
2022-10-05T03:51:23.512Z,100634.47
2022-10-05T03:53:55.810Z,100633.88
2022-10-05T03:56:31.168Z,100621.03
2022-10-05T03:59:03.540Z,100627.69
2022-10-05T04:01:37.136Z,100625.97
2022-10-05T04:04:12.414Z,100634.84
2022-10-05T04:06:44.784Z,100640.69
2022-10-05T04:09:16.546Z,100642.75
2022-10-05T04:11:50.191Z,100655.81
2022-10-05T04:14:22.787Z,100655.88
2022-10-05T04:16:56.221Z,100661.00
2022-10-05T04:19:32.311Z,100664.25
2022-10-05T04:22:05.847Z,100670.34
2022-10-05T04:24:37.719Z,100663.59
2022-10-05T04:27:11.143Z,100662.72
2022-10-05T04:29:43.198Z,100663.09
2022-10-05T04:32:31.306Z,100666.06
2022-10-05T04:35:11.838Z,100665.09
2022-10-05T04:37:54.572Z,100668.00
2022-10-05T04:40:31.963Z,100666.97
2022-10-05T04:43:06.221Z,100671.88
2022-10-05T04:45:43.125Z,100681.22
2022-10-05T04:48:20.516Z,100691.19
2022-10-05T04:50:58.531Z,100694.25
2022-10-05T04:53:32.227Z,100689.16
2022-10-05T04:56:07.973Z,100704.19
2022-10-05T04:58:56.645Z,100698.16
2022-10-05T05:01:37.806Z,100701.84
2022-10-05T05:04:15.827Z,100707.75
2022-10-05T05:06:50.363Z,100702.16
2022-10-05T05:09:27.801Z,100703.66
2022-10-05T05:12:05.068Z,100708.59
2022-10-05T05:14:49.902Z,100710.63
2022-10-05T05:17:26.519Z,100706.00
2022-10-05T05:20:00.914Z,100705.69
2022-10-05T05:22:37.537Z,100708.34
2022-10-05T05:25:20.205Z,100714.75
2022-10-05T05:27:53.533Z,100713.13
2022-10-05T05:30:24.066Z,100719.88
2022-10-05T05:33:05.805Z,100721.25
2022-10-05T05:35:42.333Z,100722.28
2022-10-05T05:38:20.921Z,100723.13
2022-10-05T05:40:55.777Z,100724.59
2022-10-05T05:43:26.921Z,100725.19
2022-10-05T05:45:59.877Z,100727.75
2022-10-05T05:48:33.299Z,100729.59
2022-10-05T05:51:05.283Z,100725.50
2022-10-05T05:53:38.706Z,100740.25
2022-10-05T05:56:11.386Z,100737.09
2022-10-05T05:58:44.705Z,100743.81
2022-10-05T06:01:32.137Z,100755.13
2022-10-05T06:04:04.825Z,100751.56
2022-10-05T06:06:37.373Z,100750.63
2022-10-05T06:09:15.803Z,100748.06
2022-10-05T06:11:47.976Z,100755.41
2022-10-05T06:14:21.932Z,100759.53
2022-10-05T06:16:55.441Z,100762.25
2022-10-05T06:19:26.870Z,100763.50
2022-10-05T06:21:59.438Z,100758.91
2022-10-05T06:24:33.665Z,100761.81
2022-10-05T06:27:13.612Z,100766.59
2022-10-05T06:29:51.420Z,100763.81
2022-10-05T06:32:25.689Z,100766.53
2022-10-05T06:34:59.096Z,100771.25
2022-10-05T06:37:36.115Z,100773.72
2022-10-05T06:40:12.555Z,100769.81
2022-10-05T06:42:51.096Z,100778.94
2022-10-05T06:45:25.994Z,100779.19
2022-10-05T06:48:04.294Z,100768.72
2022-10-05T06:50:38.072Z,100773.63
2022-10-05T06:53:14.031Z,100778.22
2022-10-05T06:55:50.692Z,100778.47
2022-10-05T06:58:37.496Z,100779.41
2022-10-05T07:01:11.359Z,100780.59
2022-10-05T07:03:47.044Z,100789.13
2022-10-05T07:06:17.590Z,100787.28
2022-10-05T07:08:53.924Z,100786.16
2022-10-05T07:11:35.099Z,100786.25
2022-10-05T07:14:12.372Z,100789.84
2022-10-05T07:16:48.669Z,100784.84
2022-10-05T07:19:23.542Z,100792.09
2022-10-05T07:22:01.812Z,100796.72
2022-10-05T07:24:33.479Z,100800.09
2022-10-05T07:27:08.304Z,100798.34
2022-10-05T07:29:40.724Z,100798.19
2022-10-05T07:32:15.566Z,100804.34
2022-10-05T07:34:50.307Z,100796.13
2022-10-05T07:37:39.385Z,100796.28
2022-10-05T07:40:13.002Z,100800.66
2022-10-05T07:42:52.884Z,100799.16
2022-10-05T07:45:28.104Z,100801.88
2022-10-05T07:47:58.483Z,100803.66
2022-10-05T07:50:31.260Z,100798.28
2022-10-05T07:53:03.784Z,100802.53
2022-10-05T07:55:36.039Z,100801.16
2022-10-05T07:58:13.510Z,100801.63
2022-10-05T08:00:46.680Z,100803.06
2022-10-05T08:03:22.231Z,100804.97
2022-10-05T08:05:51.899Z,100804.13
2022-10-05T08:08:25.471Z,100801.88
2022-10-05T08:10:59.258Z,100813.34
2022-10-05T08:13:35.573Z,100808.09
2022-10-05T08:16:12.644Z,100805.88
2022-10-05T08:18:48.505Z,100803.56
2022-10-05T08:21:22.086Z,100799.78
2022-10-05T08:23:54.186Z,100798.97
2022-10-05T08:26:29.756Z,100807.31
2022-10-05T08:29:10.250Z,100806.75
2022-10-05T08:31:44.454Z,100807.34
2022-10-05T08:34:22.090Z,100799.44
2022-10-05T08:36:56.146Z,100798.84
2022-10-05T08:39:27.713Z,100804.09
2022-10-05T08:42:16.012Z,100801.69
2022-10-05T08:45:01.899Z,100799.41
2022-10-05T08:47:42.374Z,100801.41
2022-10-05T08:50:19.686Z,100796.72
2022-10-05T08:53:02.668Z,100800.97
2022-10-05T08:55:44.704Z,100808.06
2022-10-05T08:58:32.757Z,100795.44
2022-10-05T09:01:06.318Z,100802.53
2022-10-05T09:03:52.266Z,100800.13
2022-10-05T09:06:39.416Z,100816.28
2022-10-05T09:09:26.365Z,100802.38
2022-10-05T09:12:02.519Z,100794.88
2022-10-05T09:14:38.975Z,100796.25
2022-10-05T09:17:18.516Z,100789.28
2022-10-05T09:19:54.411Z,100794.97
2022-10-05T09:22:38.405Z,100786.28
2022-10-05T09:25:19.235Z,100777.34
2022-10-05T09:27:53.120Z,100789.41
2022-10-05T09:30:28.160Z,100781.56
2022-10-05T09:33:13.546Z,100787.56
2022-10-05T09:36:04.063Z,100776.78
2022-10-05T09:38:44.803Z,100779.47
2022-10-05T09:41:32.608Z,100776.09
2022-10-05T09:44:18.818Z,100773.63
2022-10-05T09:46:58.724Z,100774.88
2022-10-05T09:49:49.652Z,100765.97
2022-10-05T09:52:29.098Z,100773.00
2022-10-05T09:55:14.449Z,100781.72
2022-10-05T09:58:03.679Z,100780.22
2022-10-05T10:00:54.211Z,100776.47
2022-10-05T10:03:57.187Z,100788.31
2022-10-05T10:06:37.906Z,100781.06
2022-10-05T10:09:17.395Z,100780.22
2022-10-05T10:11:55.802Z,100773.81
2022-10-05T10:14:57.249Z,100775.47
2022-10-05T10:17:37.955Z,100775.53
2022-10-05T10:20:19.634Z,100778.22
2022-10-05T10:23:04.107Z,100776.31
2022-10-05T10:25:41.021Z,100765.19
2022-10-05T10:28:34.422Z,100764.00
2022-10-05T10:31:19.550Z,100764.81
2022-10-05T10:34:02.887Z,100761.06
2022-10-05T10:36:44.456Z,100755.34
2022-10-05T10:39:21.064Z,100758.22
2022-10-05T10:42:05.878Z,100762.19
2022-10-05T10:44:56.349Z,100759.47
2022-10-05T10:47:36.001Z,100759.38
2022-10-05T10:50:23.353Z,100752.25
2022-10-05T10:53:01.862Z,100761.06
2022-10-05T10:55:39.885Z,100747.97
2022-10-05T10:58:33.405Z,100740.25
2022-10-05T11:01:12.072Z,100739.00
2022-10-05T11:03:57.763Z,100742.63
2022-10-05T11:06:33.982Z,100735.16
2022-10-05T11:09:21.981Z,100727.38
2022-10-05T11:12:08.331Z,100735.69
2022-10-05T11:14:55.367Z,100734.91
2022-10-05T11:17:45.861Z,100731.41
2022-10-05T11:20:26.001Z,100724.25
2022-10-05T11:22:59.904Z,100717.06
2022-10-05T11:25:48.065Z,100716.03
2022-10-05T11:28:36.334Z,100723.25
2022-10-05T11:31:20.849Z,100711.53
2022-10-05T11:34:08.342Z,100716.94
2022-10-05T11:36:55.782Z,100709.75
2022-10-05T11:39:33.249Z,100704.56
2022-10-05T11:42:17.095Z,100709.81
2022-10-05T11:45:01.692Z,100711.28
2022-10-05T11:47:34.964Z,100705.13
2022-10-05T11:50:11.710Z,100704.19
2022-10-05T11:52:44.933Z,100705.38
2022-10-05T11:55:19.314Z,100694.75
2022-10-05T11:57:53.459Z,100695.94
2022-10-05T12:00:24.254Z,100686.28
2022-10-05T12:03:01.396Z,100691.38
2022-10-05T12:05:35.147Z,100685.78
2022-10-05T12:08:20.127Z,100686.63
2022-10-05T12:10:56.005Z,100671.13
2022-10-05T12:13:34.136Z,100672.81
2022-10-05T12:16:06.817Z,100674.50
2022-10-05T12:18:46.780Z,100675.88
2022-10-05T12:21:20.565Z,100678.00
2022-10-05T12:23:52.590Z,100665.31
2022-10-05T12:26:24.552Z,100661.09
2022-10-05T12:28:57.056Z,100658.25
2022-10-05T12:31:41.617Z,100654.91
2022-10-05T12:34:19.278Z,100650.72
2022-10-05T12:37:04.213Z,100650.22
2022-10-05T12:39:53.244Z,100645.53
2022-10-05T12:42:29.730Z,100640.88
2022-10-05T12:45:05.960Z,100645.78
2022-10-05T12:47:42.147Z,100647.31
2022-10-05T12:50:17.869Z,100645.72
2022-10-05T12:52:57.122Z,100646.91
2022-10-05T12:55:29.306Z,100644.53
2022-10-05T12:58:06.460Z,100650.41
2022-10-05T13:00:40.391Z,100644.81
2022-10-05T13:03:14.528Z,100638.31
2022-10-05T13:05:50.650Z,100641.28
2022-10-05T13:08:26.496Z,100639.22
2022-10-05T13:11:02.173Z,100642.25
2022-10-05T13:13:38.079Z,100644.06
2022-10-05T13:16:16.790Z,100642.16
2022-10-05T13:18:56.257Z,100647.72
2022-10-05T13:21:33.502Z,100646.19
2022-10-05T13:24:05.385Z,100644.84
2022-10-05T13:26:36.804Z,100637.09
2022-10-05T13:29:14.787Z,100632.09
2022-10-05T13:31:46.790Z,100641.03
2022-10-05T13:34:22.643Z,100638.88
2022-10-05T13:37:00.555Z,100640.09
2022-10-05T13:39:40.247Z,100648.75
2022-10-05T13:42:12.303Z,100646.75
2022-10-05T13:44:45.209Z,100648.38
2022-10-05T13:47:19.277Z,100645.00
2022-10-05T13:49:51.978Z,100639.53
2022-10-05T13:52:27.887Z,100642.78
2022-10-05T13:55:01.659Z,100634.63
2022-10-05T13:57:45.072Z,100637.31
2022-10-05T14:00:19.455Z,100635.78
2022-10-05T14:02:51.970Z,100627.53
2022-10-05T14:05:22.943Z,100635.13
2022-10-05T14:07:55.566Z,100633.09
2022-10-05T14:10:38.606Z,100620.06
2022-10-05T14:13:20.606Z,100626.78
2022-10-05T14:15:59.669Z,100620.22
2022-10-05T14:18:31.774Z,100628.50
2022-10-05T14:21:03.100Z,100627.34
2022-10-05T14:23:33.963Z,100628.53
2022-10-05T14:26:04.463Z,100622.94
2022-10-05T14:28:34.972Z,100622.09
2022-10-05T14:31:07.357Z,100628.66
2022-10-05T14:33:37.002Z,100623.56
2022-10-05T14:36:12.896Z,100614.81
2022-10-05T14:38:56.923Z,100627.09
2022-10-05T14:41:27.682Z,100620.53
2022-10-05T14:44:02.094Z,100629.25
2022-10-05T14:46:33.171Z,100632.28
2022-10-05T14:49:21.485Z,100629.91
2022-10-05T14:51:51.726Z,100635.84
2022-10-05T14:54:30.099Z,100636.84
2022-10-05T14:57:05.135Z,100637.69
2022-10-05T14:59:49.491Z,100636.16
2022-10-05T15:02:28.324Z,100633.31
2022-10-05T15:05:01.655Z,100632.25
2022-10-05T15:07:36.166Z,100629.00
2022-10-05T15:10:27.052Z,100623.13
2022-10-05T15:12:59.966Z,100635.09
2022-10-05T15:15:34.890Z,100630.84
2022-10-05T15:18:07.161Z,100631.75
2022-10-05T15:20:43.385Z,100625.16
2022-10-05T15:23:24.882Z,100630.16
2022-10-05T15:26:02.531Z,100636.50
2022-10-05T15:28:34.969Z,100625.47
2022-10-05T15:31:06.809Z,100635.75
2022-10-05T15:33:45.783Z,100639.91
2022-10-05T15:36:19.828Z,100642.34
2022-10-05T15:39:00.245Z,100643.13
2022-10-05T15:41:41.829Z,100636.66
2022-10-05T15:44:19.497Z,100642.94
2022-10-05T15:46:58.215Z,100651.66
2022-10-05T15:49:34.416Z,100652.41
2022-10-05T15:52:06.563Z,100665.34
2022-10-05T15:54:55.906Z,100661.38
2022-10-05T15:57:34.653Z,100669.09
2022-10-05T16:00:10.321Z,100670.66
2022-10-05T16:02:42.857Z,100665.72
2022-10-05T16:05:41.671Z,100680.47
2022-10-05T16:08:35.093Z,100678.69
2022-10-05T16:11:08.961Z,100684.34
2022-10-05T16:13:45.571Z,100690.47
2022-10-05T16:16:21.991Z,100691.63
2022-10-05T16:18:56.223Z,100691.22
2022-10-05T16:21:30.744Z,100700.97
2022-10-05T16:24:05.839Z,100692.06
2022-10-05T16:26:42.448Z,100699.16
2022-10-05T16:29:15.780Z,100705.00
2022-10-05T16:31:49.135Z,100699.03
2022-10-05T16:34:23.277Z,100696.34
2022-10-05T16:36:58.682Z,100699.03
2022-10-05T16:39:41.935Z,100709.25
2022-10-05T16:42:17.909Z,100712.25
2022-10-05T16:44:54.429Z,100716.34
2022-10-05T16:47:42.204Z,100712.94
2022-10-05T16:50:18.710Z,100722.16
2022-10-05T16:52:54.629Z,100721.75
2022-10-05T16:55:30.296Z,100728.25
2022-10-05T16:58:02.255Z,100729.41
2022-10-05T17:00:40.863Z,100741.31
2022-10-05T17:03:19.577Z,100737.75
2022-10-05T17:05:57.396Z,100733.25
2022-10-05T17:08:38.994Z,100742.00
2022-10-05T17:11:17.017Z,100746.13
2022-10-05T17:14:03.427Z,100747.28
2022-10-05T17:16:41.654Z,100747.00
2022-10-05T17:19:19.312Z,100749.81
2022-10-05T17:21:55.908Z,100757.47
2022-10-05T17:24:30.347Z,100759.59
2022-10-05T17:27:03.707Z,100758.88
2022-10-05T17:29:47.645Z,100762.28
2022-10-05T17:32:36.248Z,100761.00
2022-10-05T17:35:20.223Z,100766.13
2022-10-05T17:38:14.313Z,100760.88
2022-10-05T17:40:58.697Z,100763.69
2022-10-05T17:43:30.765Z,100767.53
2022-10-05T17:46:01.611Z,100772.03
2022-10-05T17:48:59.620Z,100776.16
2022-10-05T17:52:04.033Z,100782.94
2022-10-05T17:55:12.069Z,100789.84
2022-10-05T17:57:42.011Z,100786.59
2022-10-05T18:00:32.553Z,100788.56
2022-10-05T18:03:22.092Z,100797.22
2022-10-05T18:06:22.023Z,100799.06
2022-10-05T18:08:51.644Z,100794.25
2022-10-05T18:11:39.064Z,100793.41
2022-10-05T18:14:17.592Z,100795.13
2022-10-05T18:17:00.171Z,100800.50
2022-10-05T18:19:32.344Z,100794.25
2022-10-05T18:22:04.391Z,100796.00
2022-10-05T18:24:55.813Z,100790.63
2022-10-05T18:27:50.931Z,100793.31
2022-10-05T18:30:22.037Z,100793.41
2022-10-05T18:33:08.787Z,100794.81
2022-10-05T18:35:46.771Z,100795.38
2022-10-05T18:38:25.919Z,100806.28
2022-10-05T18:41:00.808Z,100804.00
2022-10-05T18:43:36.371Z,100809.53
2022-10-05T18:46:17.978Z,100819.00
2022-10-05T18:48:54.213Z,100818.03
2022-10-05T18:51:28.500Z,100828.50
2022-10-05T18:54:03.169Z,100829.22
2022-10-05T18:56:37.359Z,100827.53
2022-10-05T18:59:19.163Z,100829.63
2022-10-05T19:01:55.130Z,100824.09
2022-10-05T19:04:29.464Z,100826.81
2022-10-05T19:07:06.184Z,100829.06
2022-10-05T19:09:48.049Z,100836.13
2022-10-05T19:12:22.807Z,100841.78
2022-10-05T19:15:00.503Z,100840.06
2022-10-05T19:17:48.733Z,100836.53
2022-10-05T19:20:22.080Z,100838.94
2022-10-05T19:23:02.318Z,100846.88
2022-10-05T19:25:38.514Z,100841.19
2022-10-05T19:28:15.387Z,100835.53
2022-10-05T19:30:51.859Z,100840.34
2022-10-05T19:33:29.129Z,100847.81
2022-10-05T19:36:05.506Z,100849.63
2022-10-05T19:38:40.426Z,100853.56
2022-10-05T19:41:14.573Z,100855.00
2022-10-05T19:43:54.385Z,100860.66
2022-10-05T19:46:33.186Z,100855.41
2022-10-05T19:49:04.079Z,100858.09
2022-10-05T19:51:37.071Z,100866.72
2022-10-05T19:54:14.637Z,100864.66
2022-10-05T19:56:49.562Z,100865.91
2022-10-05T19:59:19.896Z,100866.91
2022-10-05T20:01:52.085Z,100870.06
2022-10-05T20:04:32.775Z,100863.06
2022-10-05T20:07:03.044Z,100866.72
2022-10-05T20:09:47.363Z,100863.69
2022-10-05T20:12:17.169Z,100876.22
2022-10-05T20:15:01.005Z,100868.91
2022-10-05T20:17:49.494Z,100866.84
2022-10-05T20:20:23.482Z,100874.47
2022-10-05T20:22:53.076Z,100868.66
2022-10-05T20:25:32.409Z,100870.88
2022-10-05T20:28:03.031Z,100866.84
2022-10-05T20:30:33.835Z,100868.47
2022-10-05T20:33:11.611Z,100870.91
2022-10-05T20:35:41.231Z,100872.75
2022-10-05T20:38:11.132Z,100875.59
2022-10-05T20:40:40.636Z,100881.25
2022-10-05T20:43:10.191Z,100877.34
2022-10-05T20:45:43.105Z,100884.44
2022-10-05T20:48:15.848Z,100871.63
2022-10-05T20:50:45.471Z,100878.97
2022-10-05T20:53:15.023Z,100882.50
2022-10-05T20:55:44.745Z,100880.00
2022-10-05T20:58:14.419Z,100886.44
2022-10-05T21:01:01.268Z,100885.34
2022-10-05T21:03:32.279Z,100886.19
2022-10-05T21:06:01.755Z,100884.97
2022-10-05T21:08:31.762Z,100891.69
2022-10-05T21:11:01.562Z,100884.41
2022-10-05T21:13:31.353Z,100888.41
2022-10-05T21:16:01.342Z,100892.19
2022-10-05T21:18:33.514Z,100892.44
2022-10-05T21:21:03.326Z,100893.16
2022-10-05T21:23:32.856Z,100892.56
2022-10-05T21:26:02.934Z,100887.66
2022-10-05T21:28:33.505Z,100888.03
2022-10-05T21:31:03.114Z,100888.91
2022-10-05T21:33:34.026Z,100887.28
2022-10-05T21:36:04.068Z,100896.28
2022-10-05T21:38:33.693Z,100889.38
2022-10-05T21:41:03.239Z,100894.34
2022-10-05T21:43:32.768Z,100897.84
2022-10-05T21:46:02.579Z,100896.72
2022-10-05T21:48:33.028Z,100895.88
2022-10-05T21:51:04.615Z,100901.09
2022-10-05T21:53:36.859Z,100892.94
2022-10-05T21:56:08.908Z,100901.28
2022-10-05T21:58:38.561Z,100902.00
2022-10-05T22:01:08.192Z,100903.91
2022-10-05T22:03:37.939Z,100895.25
2022-10-05T22:06:09.072Z,100906.41
2022-10-05T22:08:38.568Z,100907.78
2022-10-05T22:11:12.459Z,100897.78
2022-10-05T22:13:44.500Z,100901.88
2022-10-05T22:16:15.194Z,100904.34
2022-10-05T22:18:45.231Z,100893.31
2022-10-05T22:21:16.269Z,100899.06
2022-10-05T22:23:46.727Z,100891.84
2022-10-05T22:26:17.711Z,100891.63
2022-10-05T22:28:48.505Z,100896.16
2022-10-05T22:31:19.031Z,100896.13
2022-10-05T22:33:48.716Z,100897.72
2022-10-05T22:36:19.811Z,100898.38
2022-10-05T22:38:49.470Z,100896.66
2022-10-05T22:41:19.459Z,100898.38
2022-10-05T22:43:50.817Z,100893.16
2022-10-05T22:46:20.467Z,100895.84
2022-10-05T22:48:50.227Z,100903.41
2022-10-05T22:51:21.130Z,100897.94
2022-10-05T22:53:50.803Z,100896.16
2022-10-05T22:56:20.671Z,100892.66
2022-10-05T22:58:51.046Z,100899.16
2022-10-05T23:01:21.103Z,100897.47
2022-10-05T23:03:50.718Z,100895.44
2022-10-05T23:06:21.800Z,100891.28
2022-10-05T23:08:51.353Z,100888.06
2022-10-05T23:11:23.676Z,100894.09
2022-10-05T23:13:55.728Z,100889.91
2022-10-05T23:16:26.731Z,100887.13
2022-10-05T23:18:56.546Z,100886.25
2022-10-05T23:21:29.105Z,100897.28
2022-10-05T23:23:58.704Z,100890.16
2022-10-05T23:26:28.483Z,100886.59
2022-10-05T23:28:58.012Z,100887.91
2022-10-05T23:31:29.832Z,100886.81
2022-10-05T23:33:59.695Z,100886.50
2022-10-05T23:36:32.396Z,100883.38
2022-10-05T23:39:02.065Z,100880.09
2022-10-05T23:41:31.580Z,100871.63
2022-10-05T23:44:01.231Z,100879.94
2022-10-05T23:46:30.763Z,100870.75
2022-10-05T23:49:00.277Z,100878.47
2022-10-05T23:51:31.327Z,100877.59
2022-10-05T23:54:00.864Z,100873.91
2022-10-05T23:56:31.466Z,100872.78
2022-10-05T23:59:01.037Z,100864.53
